Time;durP1;ratioP1;P1;durP2;ratioP2;P2;SDS_P1;SDS_P2;PMS_P1;PMS_P2;Temp;Humidity;BMP_temperature;BMP_pressure;BME280_temperature;BME280_humidity;BME280_pressure;Samples;Min_cycle;Max_cycle;Signal;HPM_P1;HPM_P2
2023/04/09 00:01:10;;;;;;;43.95;23.00;;;5.70;91.40;;;;;;6189690;22;92136;-79
2023/04/09 00:03:36;;;;;;;41.88;24.38;;;5.70;91.60;;;;;;6216399;22;88506;-79
2023/04/09 00:16:13;;;;;;;47.78;26.08;;;5.50;92.40;;;;;;6216405;22;87534;-79
2023/04/09 00:18:39;;;;;;;50.13;26.40;;;5.50;92.30;;;;;;6189435;22;88110;-79
2023/04/09 00:21:05;;;;;;;57.50;29.10;;;5.50;92.50;;;;;;6190569;22;90489;-79
2023/04/09 00:23:31;;;;;;;65.55;32.60;;;5.40;92.40;;;;;;6189667;22;96453;-79
2023/04/09 00:25:57;;;;;;;54.78;29.17;;;5.40;92.60;;;;;;6216412;22;87282;-79
2023/04/09 00:28:23;;;;;;;56.45;27.92;;;5.40;92.50;;;;;;6217008;22;87461;-79
2023/04/09 00:30:49;;;;;;;55.95;28.33;;;5.40;92.40;;;;;;6188809;22;90003;-79
2023/04/09 00:33:14;;;;;;;54.17;28.05;;;5.40;92.60;;;;;;6189261;22;90421;-79
2023/04/09 00:42:24;;;;;;;75.38;31.83;;;5.30;92.60;;;;;;6179550;22;87435;-79
2023/04/09 00:44:50;;;;;;;67.45;31.08;;;5.30;92.40;;;;;;6154309;22;91088;-79
2023/04/09 00:47:16;;;;;;;67.82;31.20;;;5.20;92.60;;;;;;6178819;22;92849;-79
2023/04/09 00:49:43;;;;;;;67.13;32.40;;;5.20;92.80;;;;;;6155384;22;87417;-79
2023/04/09 00:52:09;;;;;;;63.38;31.55;;;5.20;93.10;;;;;;6153152;22;89152;-79
2023/04/09 00:54:35;;;;;;;59.55;29.65;;;5.10;93.20;;;;;;6153341;22;91725;-79
2023/04/09 00:57:01;;;;;;;62.50;30.23;;;5.10;93.10;;;;;;6154625;22;91060;-79
2023/04/09 00:59:27;;;;;;;62.00;30.92;;;5.10;93.00;;;;;;6155056;22;87068;-79
2023/04/09 01:01:53;;;;;;;69.50;34.30;;;5.10;92.80;;;;;;6154106;22;90122;-79
2023/04/09 01:04:19;;;;;;;69.53;34.03;;;5.10;93.10;;;;;;6178632;22;91717;-80
2023/04/09 01:06:57;;;;;;;70.90;33.95;;;5.10;93.60;;;;;;6154867;22;88270;-80
2023/04/09 01:09:27;;;;;;;63.75;32.47;;;5.10;93.40;;;;;;6154560;22;88417;-79
2023/04/09 01:11:56;;;;;;;69.05;32.13;;;5.00;93.80;;;;;;6155858;22;87380;-79
2023/04/09 01:14:40;;;;;;;65.25;31.90;;;5.00;93.50;;;;;;6153071;22;91844;-79
2023/04/09 01:17:14;;;;;;;71.78;32.20;;;5.00;93.40;;;;;;6155091;22;88703;-79
2023/04/09 01:19:58;;;;;;;75.28;32.97;;;4.90;93.70;;;;;;6155619;22;86895;-79
2023/04/09 01:22:30;;;;;;;;;;;4.90;93.40;;;;;;6155337;22;87442;-79
2023/04/09 01:25:37;;;;;;;82.80;33.45;;;4.90;93.10;;;;;;6157560;22;87491;-79
2023/04/09 01:28:22;;;;;;;79.65;33.72;;;4.80;93.30;;;;;;6093626;23;88470;-79
2023/04/09 01:30:49;;;;;;;72.03;31.75;;;4.80;93.40;;;;;;6093567;23;87540;-79
2023/04/09 01:33:18;;;;;;;78.82;33.08;;;4.80;93.30;;;;;;6093906;23;87099;-79
2023/04/09 01:39:21;;;;;;;79.15;34.67;;;4.80;93.50;;;;;;6094045;23;91336;-79
2023/04/09 01:41:48;;;;;;;70.50;32.70;;;4.70;93.50;;;;;;6070779;23;87479;-79
2023/04/09 01:44:15;;;;;;;83.30;34.85;;;4.70;93.50;;;;;;6090379;23;90656;-79
2023/04/09 01:46:41;;;;;;;75.85;34.85;;;4.70;93.60;;;;;;6094160;23;88320;-79
2023/04/09 01:49:08;;;;;;;72.35;32.25;;;4.60;93.50;;;;;;6069468;23;88965;-79
2023/04/09 01:51:34;;;;;;;83.35;34.72;;;4.60;93.60;;;;;;6093755;23;87506;-79
2023/04/09 02:07:46;;;;;;;68.38;30.20;;;4.40;93.60;;;;;;6155606;22;91219;-79
2023/04/09 02:10:13;;;;;;;67.40;31.02;;;4.40;93.70;;;;;;6155232;22;91825;-80
2023/04/09 02:12:46;;;;;;;67.63;31.85;;;4.40;93.70;;;;;;6156354;22;87936;-80
2023/04/09 02:15:12;;;;;;;63.05;30.48;;;4.40;93.70;;;;;;6155062;22;87407;-79
2023/04/09 02:17:38;;;;;;;64.32;30.23;;;4.40;93.60;;;;;;6157472;22;87227;-79
2023/04/09 02:20:04;;;;;;;66.40;30.85;;;4.40;93.50;;;;;;6156587;22;88742;-79
2023/04/09 02:22:29;;;;;;;72.00;32.38;;;4.40;93.70;;;;;;6156027;22;88432;-80
2023/04/09 02:24:55;;;;;;;70.22;32.97;;;4.30;93.70;;;;;;6156699;22;95621;-79
2023/04/09 02:27:21;;;;;;;75.20;33.65;;;4.30;94.00;;;;;;6156393;22;87539;-79
2023/04/09 02:29:46;;;;;;;76.22;35.10;;;4.30;93.80;;;;;;6155801;22;92723;-79
2023/04/09 02:32:12;;;;;;;73.97;33.83;;;4.20;93.80;;;;;;6155293;22;92453;-79
2023/04/09 02:34:37;;;;;;;73.63;32.17;;;4.20;93.80;;;;;;6154963;22;87646;-79
2023/04/09 02:37:03;;;;;;;67.15;32.45;;;4.20;94.20;;;;;;6155659;22;89724;-79
2023/04/09 02:39:29;;;;;;;68.43;33.17;;;4.20;94.00;;;;;;6154539;22;91544;-80
2023/04/09 02:41:55;;;;;;;77.10;33.85;;;4.20;93.90;;;;;;6157878;22;87298;-79
2023/04/09 02:44:20;;;;;;;120.40;42.92;;;4.20;93.90;;;;;;6178579;22;88192;-80
2023/04/09 02:46:58;;;;;;;127.68;44.42;;;4.10;94.50;;;;;;6157791;22;87305;-80
2023/04/09 02:49:23;;;;;;;80.95;33.53;;;4.10;94.60;;;;;;6157174;22;88570;-79
2023/04/09 02:51:49;;;;;;;86.10;34.67;;;4.00;94.20;;;;;;6152549;22;90065;-80
2023/04/09 02:54:15;;;;;;;80.47;35.72;;;4.00;93.80;;;;;;6128298;22;88460;-79
2023/04/09 02:56:40;;;;;;;87.93;37.33;;;4.00;94.00;;;;;;6154388;22;87516;-79
2023/04/09 02:59:06;;;;;;;76.93;33.97;;;4.00;93.90;;;;;;6129020;22;90977;-80
2023/04/09 03:01:31;;;;;;;76.68;35.60;;;4.00;94.00;;;;;;6154473;22;88279;-80
2023/04/09 03:03:57;;;;;;;76.45;34.15;;;3.90;94.20;;;;;;6154178;22;87558;-80
2023/04/09 03:06:23;;;;;;;76.90;33.92;;;3.90;93.80;;;;;;6129331;22;90474;-79
2023/04/09 03:12:16;;;;;;;81.00;34.67;;;3.90;93.90;;;;;;6154559;22;91260;-79
2023/04/09 03:14:42;;;;;;;72.20;33.42;;;3.80;94.00;;;;;;6155798;22;87270;-80
2023/04/09 03:17:07;;;;;;;76.35;34.30;;;3.80;93.90;;;;;;6154426;22;87551;-79
2023/04/09 03:19:33;;;;;;;69.05;31.77;;;3.70;94.00;;;;;;6153209;22;88447;-79
2023/04/09 03:21:58;;;;;;;74.13;34.17;;;3.70;93.70;;;;;;6154790;22;89271;-79
2023/04/09 03:24:24;;;;;;;75.22;32.92;;;3.60;94.10;;;;;;6153548;22;87364;-79
2023/04/09 03:26:50;;;;;;;76.68;34.05;;;3.60;94.20;;;;;;6152118;22;90505;-79
2023/04/09 03:29:15;;;;;;;76.30;33.20;;;3.60;94.10;;;;;;6152850;22;88300;-80
2023/04/09 03:31:41;;;;;;;73.20;31.55;;;3.60;94.10;;;;;;6151866;22;90206;-80
2023/04/09 03:34:07;;;;;;;60.78;29.23;;;3.50;94.10;;;;;;6154980;22;87067;-79
2023/04/09 03:36:32;;;;;;;60.70;29.52;;;3.50;94.00;;;;;;6156693;22;87013;-79
2023/04/09 03:38:59;;;;;;;61.72;28.73;;;3.50;93.90;;;;;;6155513;22;91798;-80
2023/04/09 03:41:25;;;;;;;55.67;27.83;;;3.40;93.90;;;;;;6154671;22;89565;-79
2023/04/09 03:43:51;;;;;;;65.63;29.60;;;3.40;93.70;;;;;;6177513;22;88368;-79
2023/04/09 03:46:17;;;;;;;50.40;24.92;;;3.40;93.70;;;;;;6184884;22;88905;-79
2023/04/09 03:48:43;;;;;;;58.75;27.27;;;3.30;93.80;;;;;;6184911;22;91182;-80
2023/04/09 03:51:15;;;;;;;60.10;27.30;;;3.30;93.90;;;;;;6184547;22;89848;-79
2023/04/09 03:53:41;;;;;;;51.75;26.00;;;3.30;93.90;;;;;;6186150;22;87469;-80
2023/04/09 04:03:06;;;;;;;53.65;25.17;;;3.20;94.10;;;;;;6186760;22;90420;-79
2023/04/09 04:05:31;;;;;;;55.42;26.27;;;3.10;94.10;;;;;;6186649;22;87696;-80
2023/04/09 04:07:57;;;;;;;66.25;27.77;;;3.10;93.90;;;;;;6185504;22;90169;-80
2023/04/09 04:10:22;;;;;;;58.75;27.48;;;3.00;94.30;;;;;;6185626;22;89992;-79
2023/04/09 04:12:48;;;;;;;57.53;27.05;;;3.00;94.30;;;;;;6186233;22;88328;-79
2023/04/09 04:15:14;;;;;;;59.20;27.23;;;3.00;94.40;;;;;;6184944;22;87005;-79
2023/04/09 04:21:02;;;;;;;56.70;26.80;;;3.00;94.20;;;;;;6185238;22;92252;-79
2023/04/09 04:23:27;;;;;;;60.47;27.00;;;2.90;94.20;;;;;;6185607;22;90297;-79
2023/04/09 04:25:53;;;;;;;52.75;26.30;;;2.90;94.10;;;;;;6184855;22;87668;-79
2023/04/09 04:28:18;;;;;;;59.90;26.80;;;3.00;94.00;;;;;;6184658;22;90409;-80
2023/04/09 04:30:44;;;;;;;56.33;26.90;;;2.90;94.10;;;;;;6184644;22;91488;-79
2023/04/09 04:54:22;;;;;;;58.33;26.25;;;2.80;94.30;;;;;;6186467;22;91158;-79
2023/04/09 04:56:47;;;;;;;61.28;27.83;;;2.80;94.50;;;;;;6190267;22;92649;-79
2023/04/09 04:59:13;;;;;;;64.65;28.38;;;2.80;94.50;;;;;;6216622;22;88345;-78
2023/04/09 05:01:38;;;;;;;67.47;30.02;;;2.80;94.40;;;;;;6188954;22;87521;-79
2023/04/09 05:04:04;;;;;;;67.43;29.50;;;2.80;94.70;;;;;;6217009;22;87134;-79
2023/04/09 05:06:30;;;;;;;78.32;32.97;;;2.80;94.40;;;;;;6216634;22;89527;-78
2023/04/09 05:08:57;;;;;;;91.00;36.50;;;2.80;94.70;;;;;;6191406;22;91205;-79
2023/04/09 05:11:24;;;;;;;108.75;38.90;;;2.80;94.70;;;;;;6217795;22;87162;-79
2023/04/09 05:13:50;;;;;;;115.95;39.33;;;2.80;94.80;;;;;;6217330;22;87675;-79
2023/04/09 05:16:17;;;;;;;120.22;42.67;;;2.80;95.10;;;;;;6190281;22;91305;-80
2023/04/09 05:18:42;;;;;;;114.45;39.40;;;2.90;95.30;;;;;;6217467;22;88368;-79
2023/04/09 05:21:08;;;;;;;95.93;38.17;;;2.90;95.20;;;;;;6217349;22;87379;-79
2023/04/09 05:23:34;;;;;;;110.20;39.13;;;2.80;95.30;;;;;;6191457;22;90254;-79
2023/04/09 05:25:59;;;;;;;96.50;38.40;;;2.90;95.40;;;;;;6189708;22;90640;-79
2023/04/09 05:28:26;;;;;;;109.32;40.03;;;2.90;95.50;;;;;;6190146;22;90846;-79
2023/04/09 05:44:18;;;;;;;136.98;36.72;;;3.10;95.50;;;;;;6216513;22;87078;-79
2023/04/09 05:46:43;;;;;;;112.45;41.63;;;3.10;95.60;;;;;;6217917;22;87436;-79
2023/04/09 05:49:09;;;;;;;93.75;37.97;;;3.10;95.90;;;;;;6217543;22;88877;-79
2023/04/09 05:51:35;;;;;;;107.50;37.95;;;3.10;95.80;;;;;;6190593;22;91462;-79
2023/04/09 06:01:36;;;;;;;97.88;36.53;;;3.30;95.80;;;;;;6188670;22;90397;-81
2023/04/09 06:04:02;;;;;;;90.95;35.53;;;3.30;95.80;;;;;;6192840;22;88526;-73
2023/04/09 06:06:27;;;;;;;95.00;38.35;;;3.40;95.80;;;;;;6176331;22;87656;-74
2023/04/09 06:08:53;;;;;;;105.38;39.22;;;3.50;95.80;;;;;;6139804;22;89511;-72
2023/04/09 06:11:20;;;;;;;101.43;40.03;;;3.60;95.80;;;;;;6113955;22;91372;-72
2023/04/09 06:13:45;;;;;;;101.85;38.70;;;3.60;95.70;;;;;;6137946;22;88913;-72
2023/04/09 06:16:11;;;;;;;94.57;37.85;;;3.70;95.70;;;;;;6138811;22;87736;-73
2023/04/09 06:18:36;;;;;;;86.13;36.17;;;3.80;95.70;;;;;;6139497;22;90153;-73
2023/04/09 06:21:03;;;;;;;90.63;38.55;;;3.80;95.70;;;;;;6115786;22;91096;-74
2023/04/09 06:23:29;;;;;;;89.10;37.70;;;3.90;95.60;;;;;;6138931;22;87850;-72
2023/04/09 06:25:55;;;;;;;82.07;36.80;;;4.10;95.80;;;;;;6138486;22;88973;-72
2023/04/09 06:28:20;;;;;;;78.93;34.80;;;4.10;95.80;;;;;;6138641;22;89048;-72
2023/04/09 06:30:47;;;;;;;84.65;36.55;;;4.20;95.70;;;;;;6139502;22;90101;-72
2023/04/09 06:33:13;;;;;;;84.05;37.45;;;4.40;95.80;;;;;;6139767;22;91097;-74
2023/04/09 06:35:38;;;;;;;89.93;39.30;;;4.40;95.80;;;;;;6139773;22;87732;-73
2023/04/09 06:38:05;;;;;;;74.65;36.92;;;4.60;95.80;;;;;;6114509;22;90482;-72
2023/04/09 06:40:31;;;;;;;85.10;37.95;;;4.60;95.70;;;;;;6185514;22;88472;-74
2023/04/09 06:42:56;;;;;;;84.97;39.60;;;4.80;95.90;;;;;;6201754;22;88430;-73
2023/04/09 06:45:22;;;;;;;88.40;39.50;;;4.90;95.80;;;;;;6203123;22;87473;-73
2023/04/09 06:47:48;;;;;;;85.15;40.05;;;5.00;95.80;;;;;;6203609;22;87741;-72
2023/04/09 06:50:14;;;;;;;86.40;41.45;;;5.20;95.90;;;;;;6171523;22;92829;-73
2023/04/09 06:52:40;;;;;;;91.45;41.40;;;5.30;95.90;;;;;;6171965;22;89010;-72
2023/04/09 06:55:06;;;;;;;92.53;44.42;;;5.40;96.00;;;;;;6133747;22;87682;-72
2023/04/09 06:57:32;;;;;;;90.75;42.55;;;5.60;96.00;;;;;;6135923;22;87705;-72
2023/04/09 06:59:57;;;;;;;97.65;44.58;;;5.80;96.10;;;;;;6137381;22;88398;-72
2023/04/09 07:02:23;;;;;;;88.18;43.80;;;5.90;96.10;;;;;;6137241;22;88912;-72
2023/04/09 07:04:49;;;;;;;100.38;47.22;;;6.10;96.20;;;;;;6091179;22;88172;-73
2023/04/09 07:07:15;;;;;;;94.05;47.78;;;6.30;96.10;;;;;;6120939;22;87001;-73
2023/04/09 07:09:41;;;;;;;90.82;44.83;;;6.40;96.10;;;;;;6112243;22;92018;-72
2023/04/09 07:12:06;;;;;;;91.75;45.95;;;6.50;95.90;;;;;;6136846;22;87659;-73
2023/04/09 07:14:32;;;;;;;88.82;44.05;;;6.70;95.70;;;;;;6137227;22;88685;-72
2023/04/09 07:16:58;;;;;;;89.20;45.75;;;6.80;95.60;;;;;;6137378;22;89912;-70
2023/04/09 07:19:23;;;;;;;79.22;41.90;;;7.00;95.50;;;;;;6137902;22;87636;-71
2023/04/09 07:21:49;;;;;;;84.53;42.67;;;7.20;95.30;;;;;;6135087;22;88013;-72
2023/04/09 07:24:15;;;;;;;80.68;41.25;;;7.30;95.00;;;;;;6132280;22;87748;-73
2023/04/09 07:26:41;;;;;;;81.95;42.70;;;7.50;94.80;;;;;;6112710;22;90770;-73
2023/04/09 07:29:07;;;;;;;75.75;41.65;;;7.70;94.80;;;;;;6138244;22;91146;-72
2023/04/09 07:31:32;;;;;;;83.75;43.38;;;7.80;94.50;;;;;;6142058;22;88330;-72
2023/04/09 07:33:58;;;;;;;82.25;42.80;;;8.00;94.60;;;;;;6195352;22;87557;-73
2023/04/09 07:36:24;;;;;;;78.28;41.80;;;8.10;94.20;;;;;;6202536;22;87753;-72
2023/04/09 07:38:50;;;;;;;77.88;40.80;;;8.30;93.80;;;;;;6175159;22;92801;-72
2023/04/09 07:41:17;;;;;;;78.07;42.10;;;8.50;93.70;;;;;;6201693;22;87309;-72
2023/04/09 07:43:43;;;;;;;74.63;40.20;;;8.60;93.30;;;;;;6202692;22;87998;-72
2023/04/09 07:46:08;;;;;;;74.20;40.78;;;8.80;93.20;;;;;;6202916;22;88108;-72
2023/04/09 07:48:34;;;;;;;81.13;43.50;;;8.90;92.60;;;;;;6175477;22;90786;-71
2023/04/09 07:51:00;;;;;;;71.78;40.03;;;9.10;92.50;;;;;;6175572;22;90157;-71
2023/04/09 07:53:26;;;;;;;70.47;39.47;;;9.30;92.30;;;;;;6108067;23;87942;-72
2023/04/09 07:55:51;;;;;;;71.50;39.75;;;9.40;91.50;;;;;;6108455;23;87173;-71
2023/04/09 07:58:17;;;;;;;67.97;39.22;;;9.60;91.20;;;;;;6107587;23;88428;-71
2023/04/09 08:00:43;;;;;;;64.72;38.17;;;9.70;91.30;;;;;;6107861;23;87601;-72
2023/04/09 08:03:08;;;;;;;66.65;38.45;;;9.90;90.90;;;;;;6082159;23;88671;-72
2023/04/09 08:05:35;;;;;;;65.57;37.78;;;10.10;90.40;;;;;;6108548;23;87665;-72
2023/04/09 08:08:00;;;;;;;62.90;35.75;;;10.20;90.10;;;;;;6107771;23;87640;-71
2023/04/09 08:10:26;;;;;;;66.50;38.17;;;10.30;89.60;;;;;;6107945;23;87505;-72
2023/04/09 08:12:52;;;;;;;60.42;35.55;;;10.50;90.20;;;;;;6083674;23;87791;-72
2023/04/09 08:15:17;;;;;;;56.35;33.13;;;10.70;89.50;;;;;;6082533;23;88218;-72
2023/04/09 08:17:43;;;;;;;61.30;34.40;;;10.90;87.30;;;;;;6081472;23;91759;-72
2023/04/09 08:20:10;;;;;;;52.03;30.27;;;11.10;87.10;;;;;;6076707;23;89334;-72
2023/04/09 08:22:35;;;;;;;46.67;29.85;;;11.30;83.70;;;;;;6083044;23;87828;-72
2023/04/09 08:25:01;;;;;;;46.55;28.20;;;11.40;81.40;;;;;;6176003;22;87708;-71
2023/04/09 08:27:27;;;;;;;45.75;27.90;;;11.40;79.90;;;;;;6173956;22;92366;-72
2023/04/09 08:29:53;;;;;;;48.20;27.77;;;11.30;80.60;;;;;;6174729;22;92052;-72
2023/04/09 08:32:20;;;;;;;46.00;26.85;;;11.40;81.90;;;;;;6203498;22;87022;-72
2023/04/09 08:34:46;;;;;;;43.45;27.10;;;11.50;81.00;;;;;;6203457;22;87533;-72
2023/04/09 08:37:12;;;;;;;39.40;25.65;;;11.60;80.10;;;;;;6175217;22;90935;-72
2023/04/09 08:39:37;;;;;;;46.28;28.27;;;11.80;79.50;;;;;;6177070;22;91578;-71
2023/04/09 08:42:06;;;;;;;42.25;26.05;;;11.80;80.10;;;;;;6176493;22;87869;-71
2023/04/09 08:44:32;;;;;;;43.17;25.23;;;12.00;80.50;;;;;;6203187;22;87038;-72
2023/04/09 08:46:59;;;;;;;39.42;24.63;;;12.30;80.80;;;;;;6176766;22;90959;-72
2023/04/09 08:49:24;;;;;;;41.50;24.13;;;12.60;75.80;;;;;;6201627;22;88533;-72
2023/04/09 08:51:50;;;;;;;38.75;25.25;;;12.70;75.10;;;;;;6201977;22;88682;-71
2023/04/09 08:54:18;;;;;;;41.42;25.00;;;12.90;74.00;;;;;;6176277;22;91047;-72
2023/04/09 08:56:47;;;;;;;33.38;22.90;;;13.00;72.40;;;;;;6203227;22;88123;-73
2023/04/09 08:59:19;;;;;;;30.83;20.42;;;13.10;75.90;;;;;;6203475;22;88835;-73
2023/04/09 09:01:48;;;;;;;32.33;20.20;;;13.20;68.00;;;;;;6202224;22;87722;-72
2023/04/09 09:04:13;;;;;;;31.73;20.77;;;13.40;69.80;;;;;;6201275;22;87658;-73
2023/04/09 09:06:40;;;;;;;32.40;20.77;;;13.60;71.80;;;;;;6204771;22;89377;-73
2023/04/09 09:09:11;;;;;;;33.00;20.73;;;13.90;68.00;;;;;;6177439;22;90095;-72
2023/04/09 09:11:41;;;;;;;29.75;19.55;;;14.00;65.20;;;;;;6203376;22;88090;-72
2023/04/09 09:14:12;;;;;;;32.13;20.90;;;14.00;68.10;;;;;;6202330;22;87260;-72
2023/04/09 09:16:42;;;;;;;31.30;20.70;;;13.90;66.40;;;;;;6202107;22;89540;-72
2023/04/09 09:19:30;;;;;;;30.65;19.48;;;13.80;68.80;;;;;;6202945;22;88571;-72
2023/04/09 09:22:00;;;;;;;34.50;19.45;;;13.90;69.40;;;;;;6204173;22;87626;-72
2023/04/09 09:24:26;;;;;;;28.23;19.30;;;14.20;67.80;;;;;;6204085;22;87732;-72
2023/04/09 09:26:53;;;;;;;30.85;20.70;;;14.50;65.60;;;;;;6108132;23;91467;-72
2023/04/09 09:29:19;;;;;;;26.15;18.27;;;14.60;66.90;;;;;;6106768;23;88191;-73
2023/04/09 09:31:52;;;;;;;28.83;19.55;;;14.80;67.30;;;;;;6109735;23;87884;-72
2023/04/09 09:34:20;;;;;;;26.40;18.15;;;14.80;65.00;;;;;;6107001;23;87470;-72
2023/04/09 09:36:46;;;;;;;25.67;17.13;;;15.00;64.30;;;;;;6109320;23;88695;-73
2023/04/09 09:39:13;;;;;;;26.27;17.73;;;15.10;62.10;;;;;;6083975;23;90072;-72
2023/04/09 09:41:42;;;;;;;25.83;17.02;;;15.10;61.80;;;;;;6083457;23;88758;-72
2023/04/09 09:44:10;;;;;;;22.83;16.20;;;15.20;68.40;;;;;;6107936;23;87621;-72
2023/04/09 09:46:37;;;;;;;25.52;16.88;;;15.50;60.20;;;;;;6084272;23;92273;-72
2023/04/09 09:49:03;;;;;;;26.02;17.67;;;15.60;60.60;;;;;;6107997;23;87939;-72
2023/04/09 09:51:31;;;;;;;25.92;18.23;;;15.60;62.30;;;;;;6083693;23;87609;-72
2023/04/09 09:53:58;;;;;;;21.23;14.30;;;15.80;62.20;;;;;;6109521;23;87756;-72
2023/04/09 09:56:31;;;;;;;23.65;16.35;;;16.10;60.00;;;;;;6109140;23;88881;-72
2023/04/09 09:59:00;;;;;;;23.75;15.85;;;16.20;58.40;;;;;;6169909;22;92705;-72
2023/04/09 10:01:26;;;;;;;23.38;15.73;;;16.30;58.40;;;;;;6176872;22;88185;-72
2023/04/09 10:03:55;;;;;;;23.20;15.18;;;16.40;56.20;;;;;;6203497;22;87600;-72
2023/04/09 10:06:22;;;;;;;20.92;14.30;;;16.50;58.90;;;;;;6202713;22;91303;-72
2023/04/09 10:08:51;;;;;;;20.00;15.10;;;16.80;64.30;;;;;;6176100;22;91658;-72
2023/04/09 10:11:18;;;;;;;20.88;14.85;;;17.20;60.90;;;;;;6202316;22;87707;-72
2023/04/09 10:13:50;;;;;;;18.90;14.20;;;17.50;55.30;;;;;;6204129;22;87598;-72
2023/04/09 10:16:17;;;;;;;16.00;11.52;;;17.60;55.70;;;;;;6203666;22;88857;-71
2023/04/09 10:18:43;;;;;;;18.23;12.88;;;17.50;53.90;;;;;;6204788;22;87845;-72
2023/04/09 10:21:30;;;;;;;18.17;12.90;;;17.40;52.90;;;;;;6176194;22;87224;-72
2023/04/09 10:23:57;;;;;;;16.85;12.38;;;17.30;54.40;;;;;;6177196;22;88844;-72
2023/04/09 10:26:29;;;;;;;17.40;12.80;;;17.30;56.60;;;;;;6175569;22;91859;-71
2023/04/09 10:29:06;;;;;;;16.13;11.68;;;17.70;56.70;;;;;;6203166;22;87518;-72
2023/04/09 10:31:51;;;;;;;16.02;11.60;;;18.00;54.20;;;;;;6175981;22;88527;-72
2023/04/09 10:34:21;;;;;;;16.45;11.15;;;18.50;55.70;;;;;;6176252;22;90219;-72
2023/04/09 10:36:56;;;;;;;15.35;10.13;;;19.10;54.80;;;;;;6176514;22;93159;-72
2023/04/09 10:39:26;;;;;;;12.32;9.15;;;19.30;46.70;;;;;;6175676;22;91475;-72
2023/04/09 10:41:53;;;;;;;12.77;8.75;;;18.90;53.80;;;;;;6177524;22;87478;-72
2023/04/09 10:44:23;;;;;;;14.55;10.50;;;18.90;52.30;;;;;;6203179;22;87749;-72
2023/04/09 10:46:51;;;;;;;14.77;9.85;;;18.90;51.40;;;;;;6176101;22;90452;-72
2023/04/09 10:49:22;;;;;;;13.65;9.05;;;19.10;50.20;;;;;;6174311;22;90608;-72
2023/04/09 10:51:52;;;;;;;11.30;7.53;;;19.10;49.30;;;;;;6177020;22;88128;-72
2023/04/09 10:54:33;;;;;;;10.25;6.47;;;19.30;49.70;;;;;;6203089;22;87766;-71
2023/04/09 10:57:15;;;;;;;9.68;8.05;;;19.20;46.70;;;;;;6174974;22;92285;-72
2023/04/09 10:59:54;;;;;;;11.45;8.27;;;18.80;47.20;;;;;;6202870;22;87497;-72
2023/04/09 11:02:37;;;;;;;14.18;8.95;;;18.80;47.90;;;;;;6201692;22;87712;-72
2023/04/09 11:05:31;;;;;;;13.15;9.52;;;18.90;48.20;;;;;;6174551;22;89834;-72
2023/04/09 11:08:08;;;;;;;11.97;8.80;;;18.80;49.50;;;;;;6202673;22;87893;-72
2023/04/09 11:10:35;;;;;;;10.55;7.78;;;18.70;50.80;;;;;;6202107;22;88278;-72
2023/04/09 11:13:01;;;;;;;10.65;8.75;;;18.60;52.40;;;;;;6204066;22;87602;-71
2023/04/09 11:15:27;;;;;;;10.60;8.02;;;18.70;47.90;;;;;;6202167;22;87371;-72
2023/04/09 11:17:53;;;;;;;10.82;7.40;;;18.70;51.40;;;;;;6202624;22;88811;-72
2023/04/09 11:20:21;;;;;;;10.93;6.78;;;19.20;49.20;;;;;;6175394;22;91257;-72
2023/04/09 11:22:52;;;;;;;9.32;7.15;;;19.50;48.90;;;;;;6201450;22;88899;-72
2023/04/09 11:25:23;;;;;;;11.13;7.13;;;19.50;47.60;;;;;;6202102;22;87740;-72
2023/04/09 11:27:50;;;;;;;10.18;7.55;;;19.50;49.10;;;;;;6202960;22;87838;-72
2023/04/09 11:30:16;;;;;;;10.02;7.82;;;19.20;49.90;;;;;;6204641;22;88411;-72
2023/04/09 11:32:42;;;;;;;8.40;6.90;;;19.20;47.90;;;;;;6177510;22;87557;-72
2023/04/09 11:35:16;;;;;;;10.32;7.50;;;19.40;52.30;;;;;;6176998;22;89970;-73
2023/04/09 11:37:43;;;;;;;13.10;7.75;;;20.00;53.30;;;;;;6204003;22;87487;-72
2023/04/09 11:40:15;;;;;;;9.30;6.95;;;20.60;50.10;;;;;;6204180;22;87937;-72
2023/04/09 11:42:41;;;;;;;9.27;5.87;;;21.30;47.70;;;;;;6204799;22;87471;-72
2023/04/09 11:45:09;;;;;;;9.07;6.75;;;22.00;48.70;;;;;;6177258;22;90488;-76
2023/04/09 11:47:35;;;;;;;8.77;7.15;;;22.40;44.70;;;;;;6179079;22;92661;-72
2023/04/09 11:50:01;;;;;;;9.70;8.02;;;22.10;41.60;;;;;;6176831;22;91643;-71
2023/04/09 11:52:29;;;;;;;9.18;6.20;;;21.90;40.90;;;;;;6177637;22;87882;-71
2023/04/09 11:55:00;;;;;;;9.25;6.85;;;22.50;45.20;;;;;;6205026;22;87778;-71
2023/04/09 11:57:44;;;;;;;7.13;6.40;;;22.90;39.20;;;;;;6177255;22;90478;-72
2023/04/09 12:00:15;;;;;;;7.55;5.93;;;22.20;42.20;;;;;;6204753;22;88321;-70
2023/04/09 12:02:48;;;;;;;7.18;5.38;;;21.70;43.30;;;;;;6203802;22;87390;-72
2023/04/09 12:05:22;;;;;;;7.65;6.38;;;22.10;44.70;;;;;;6176639;22;90586;-70
2023/04/09 12:07:47;;;;;;;7.60;5.72;;;22.30;44.80;;;;;;6204517;22;88343;-72
2023/04/09 12:10:13;;;;;;;8.48;6.13;;;22.30;44.80;;;;;;6204471;22;88144;-72
2023/04/09 12:12:44;;;;;;;7.75;6.57;;;22.40;45.00;;;;;;6204518;22;88375;-71
2023/04/09 12:15:31;;;;;;;7.47;5.93;;;23.00;43.70;;;;;;6204187;22;88847;-74
2023/04/09 12:17:57;;;;;;;7.68;5.47;;;23.50;41.00;;;;;;6204278;22;88643;-70
2023/04/09 12:20:28;;;;;;;7.00;5.20;;;23.50;41.30;;;;;;6203828;22;88940;-72
2023/04/09 12:22:54;;;;;;;5.47;4.50;;;23.50;43.10;;;;;;6204112;22;87612;-71
2023/04/09 12:25:20;;;;;;;5.88;5.15;;;24.00;44.60;;;;;;6176789;22;91443;-73
2023/04/09 12:27:45;;;;;;;6.45;5.43;;;24.70;37.40;;;;;;6177971;22;91681;-71
2023/04/09 12:30:11;;;;;;;7.15;5.63;;;24.50;36.90;;;;;;6177875;22;91311;-70
2023/04/09 12:32:37;;;;;;;6.35;5.03;;;24.30;42.80;;;;;;6204708;22;87327;-71
2023/04/09 12:35:03;;;;;;;8.40;5.85;;;24.80;40.40;;;;;;6206526;22;86983;-71
2023/04/09 12:37:29;;;;;;;5.95;5.35;;;24.30;38.90;;;;;;6206070;22;90848;-71
2023/04/09 12:39:55;;;;;;;6.50;4.90;;;24.20;40.60;;;;;;6207259;22;89649;-70
2023/04/09 12:42:20;;;;;;;6.45;4.72;;;24.60;40.00;;;;;;6179861;22;87497;-73
2023/04/09 12:44:46;;;;;;;7.10;5.47;;;24.70;40.80;;;;;;6180081;22;90108;-71
2023/04/09 12:47:12;;;;;;;5.10;4.60;;;24.40;37.30;;;;;;6204992;22;87774;-71
2023/04/09 12:49:38;;;;;;;5.70;4.97;;;24.20;41.30;;;;;;6204919;22;87692;-73
2023/04/09 12:52:04;;;;;;;5.57;4.72;;;24.60;38.60;;;;;;6178640;22;87725;-74
2023/04/09 12:54:30;;;;;;;5.85;5.10;;;25.10;38.60;;;;;;6179555;22;90629;-72
2023/04/09 12:56:56;;;;;;;5.68;5.00;;;25.30;39.60;;;;;;6179333;22;91611;-72
2023/04/09 12:59:21;;;;;;;6.03;5.18;;;25.60;39.80;;;;;;6205652;22;88095;-71
2023/04/09 13:01:47;;;;;;;5.85;4.80;;;26.20;38.10;;;;;;6178423;22;88404;-74
2023/04/09 13:04:12;;;;;;;5.28;4.43;;;26.70;40.20;;;;;;6176913;22;90684;-73
2023/04/09 13:06:38;;;;;;;5.85;4.88;;;26.70;38.60;;;;;;6205738;22;87500;-74
2023/04/09 13:09:04;;;;;;;5.53;4.85;;;26.60;39.90;;;;;;6177043;22;91242;-75
2023/04/09 13:11:29;;;;;;;4.90;4.40;;;26.50;38.70;;;;;;6201830;22;93739;-74
2023/04/09 13:13:55;;;;;;;5.45;4.70;;;26.50;39.50;;;;;;6175600;22;90625;-71
2023/04/09 13:16:21;;;;;;;5.55;4.63;;;26.50;38.40;;;;;;6174673;22;91564;-71
2023/04/09 13:18:46;;;;;;;5.70;4.97;;;26.30;40.20;;;;;;6176984;22;90972;-74
2023/04/09 13:21:17;;;;;;;6.28;4.78;;;26.10;37.20;;;;;;6175450;22;87989;-73
2023/04/09 13:23:43;;;;;;;6.15;5.20;;;25.90;40.60;;;;;;6175559;22;90010;-72
2023/04/09 13:26:09;;;;;;;6.35;4.85;;;25.70;38.30;;;;;;6175265;22;91965;-74
2023/04/09 13:28:35;;;;;;;4.97;4.47;;;25.60;39.00;;;;;;6177176;22;92292;-74
2023/04/09 13:31:01;;;;;;;6.13;5.30;;;25.50;41.60;;;;;;6205035;22;87476;-73
2023/04/09 13:33:27;;;;;;;5.45;4.88;;;25.50;37.50;;;;;;6202076;22;87324;-72
2023/04/09 13:35:53;;;;;;;6.78;5.82;;;25.10;40.30;;;;;;6202169;22;88932;-72
2023/04/09 13:38:19;;;;;;;6.93;6.22;;;24.70;36.40;;;;;;6201880;22;88309;-72
2023/04/09 13:40:45;;;;;;;6.05;5.40;;;23.90;37.70;;;;;;6205205;22;87989;-72
2023/04/09 13:43:10;;;;;;;7.03;5.65;;;23.50;42.10;;;;;;6205026;22;86813;-71
2023/04/09 13:45:36;;;;;;;6.80;5.88;;;23.70;42.20;;;;;;6177400;22;91644;-74
2023/04/09 13:48:01;;;;;;;7.82;6.22;;;23.60;40.10;;;;;;6204468;22;87629;-71
2023/04/09 13:50:27;;;;;;;6.78;6.07;;;23.60;39.20;;;;;;6203217;22;89070;-74
2023/04/09 13:55:18;;;;;;;7.43;5.60;;;24.30;40.50;;;;;;6151840;22;90276;-73
2023/04/09 13:57:44;;;;;;;5.93;5.13;;;24.90;38.80;;;;;;6169855;22;89679;-74
2023/04/09 14:00:10;;;;;;;6.65;5.95;;;25.00;39.00;;;;;;6144838;22;87570;-73
2023/04/09 14:02:36;;;;;;;6.75;6.05;;;25.00;36.10;;;;;;6143717;22;91206;-71
2023/04/09 14:05:02;;;;;;;7.50;6.10;;;24.80;35.70;;;;;;6169049;22;90847;-71
2023/04/09 14:07:28;;;;;;;6.60;5.88;;;24.30;36.10;;;;;;6170250;22;87084;-73
2023/04/09 14:09:54;;;;;;;6.50;5.18;;;23.70;38.40;;;;;;6145185;22;87966;-73